Philipp Schmitt

Jefe de ojeadores - RB Leipzig
3 Dic 2028
Domingo
Continuar

Personalidad

Adaptabilidad (10) Ambición (5) Controversia (17) Lealtad (3) Presión (11) Profesionalismo (8) Deportividad (13) Temperamento (4)

Perfil

Estilo de dirección Democrático
Licencia Continental Pro
Determinación 12
Gestión de personas 7
Motivación 7
Disciplina 12
Satisfacción laboral
85%
Fatiga
0%
Cargo Jefe de ojeadores
Salario 30.3K p/s
Contrato 14.03.2030

Rendimiento

Comportamiento Bueno
Efectividad del entrenamiento
37%
Desarrollo de jugadores
75%
Prevención de lesiones
80%
Implementación táctica
55%

Eventos recientes

Evaluó a un jugador ahora
Asistió a una reunión de captación ahora
Recomendó un objetivo de fichaje ahora
Recomendó un objetivo de fichaje ahora
Evaluó a un jugador ahora
Evaluó a un jugador ahora
Evaluó a un jugador 7d atrás
Evaluó a un jugador 7d atrás

Actualmente siguiendo

207
Jugador Club Estado Habilidad Confianza Observado Última observación Último voto
Peyton Miller New England Revolution Activo 117 / 123 40% 7 29.11.2028 -
João Simões Sporting CP Activo 142 / 146 40% 1 29.11.2028 -
José Neto Benfica Activo 126 / 132 40% 1 29.11.2028 -
Celías Ingenthron Platense Activo 117 / 125 40% 5 28.11.2028 -
Buba Sangaré Elche Activo 138 / 141 40% 6 28.11.2028 -
Honest Ahanor Atalanta Activo 141 / 149 40% 6 28.11.2028 -
Olivier Mambwa Young Boys Activo 116 / 125 40% 6 27.11.2028 -
Veljko Milosavljević Bournemouth Activo 148 / 155 40% 4 27.11.2028 -
Pau Cubarsí Real Sociedad Activo 165 / 166 40% 26 26.11.2028 -
Marc Bernal Sevilla Activo 150 / 158 40% 14 26.11.2028 -
Harrison Armstrong Ipswich Town Activo 138 / 142 40% 6 26.11.2028 -
Luis Otávio Orlando City Activo 113 / 123 40% 15 25.11.2028 -
Chris Rigg West Ham United Activo 141 / 148 40% 5 24.11.2028 -
Jorge Salinas Racing Santander Activo 137 / 139 40% 9 21.11.2028 -
Pablo Lúcio St. Gallen Activo 116 / 122 40% 7 21.11.2028 -
Jorthy Mokio ADO Den Haag Activo 136 / 142 40% 4 17.11.2028 -
Matias Siltanen Malmo FF Activo 128 / 134 40% 4 10.11.2028 -
Christos Mouzakitis Hull City Activo 142 / 146 40% 7 10.11.2028 -
Giovanni Leoni Lincoln City Activo 147 / 153 40% 6 08.11.2028 -
Ayyoub Bouaddi Stoke City Activo 151 / 159 40% 5 08.11.2028 -
Trey Nyoni Rotherham United Activo 143 / 150 40% 3 02.11.2028 -
Oliver Sorg Austria Wien Activo 113 / 122 40% 2 30.10.2028 -
Sebastian Rodriguez Houston Dynamo Activo 116 / 129 40% 2 29.10.2028 -
Noahkai Banks FC Augsburg Preseleccionado 147 / 151 86% 5 24.10.2028 -
Tyler Fletcher Rotherham United Activo 117 / 124 40% 3 22.10.2028 -
Tobías Ramírez River Plate Activo 129 / 132 40% 2 20.10.2028 -
Noah Markmann Esbjerg Activo 126 / 129 40% 1 14.10.2028 -
Philipp Maybach Red Bull Salzburg Activo 116 / 127 40% 4 06.10.2028 -
Diego León Rotherham United Activo 127 / 128 40% 1 05.10.2028 -
Daniel Banjaqui Benfica Activo 130 / 134 40% 1 02.10.2028 -
Kauã Moraes Flamengo Activo 132 / 133 40% 2 13.09.2028 -
Thulani Manyama Portland Timbers Activo 114 / 120 40% 1 09.09.2028 -
Ayden Heaven Portsmouth Activo 150 / 153 40% 7 08.09.2028 -
Myles Lewis-Skelly Arsenal Activo 156 / 162 40% 1 04.09.2028 -
Luka Vušković Tottenham Activo 150 / 157 40% 3 01.09.2028 -
Axel Tape Bayer Leverkusen Activo 136 / 145 40% 2 31.08.2028 -
Harry Amass Manchester United Activo 147 / 151 40% 1 30.08.2028 -
Lucca São Paulo Activo 120 / 121 40% 2 26.08.2028 -
Tahiel Peralta Racing Club Activo 112 / 120 40% 1 25.08.2028 -
Lennart Karl TSG Hoffenheim Negociando 141 / 149 40% 3 23.08.2028 -
Mikey Moore Stockport County Activo 139 / 146 40% 1 23.08.2028 -
Yannik Wagner Heidenheim Activo 116 / 119 40% 1 23.08.2028 -
Alex Verón Vélez Activo 117 / 124 40% 1 22.08.2028 -
Jacob Peter Hödl Sturm Graz Activo 124 / 130 40% 1 22.08.2028 -
Samuele Inácio Union Berlin Activo 127 / 131 40% 1 21.08.2028 -
Thijs Kraaijeveld USM Alger Activo 127 / 128 40% 1 20.08.2028 -
Nicolás Barros Schelotto Gimnasia La Plata Activo 118 / 127 40% 2 19.08.2028 -
Álvaro Montoro Botafogo Activo 133 / 139 40% 3 19.08.2028 -
Matías Arias Vélez Activo 114 / 119 40% 1 19.08.2028 -
Herba Guirassy Young Boys Activo 127 / 129 40% 1 18.08.2028 -
Otto Stange Borussia Mönchengladbach Activo 130 / 137 40% 1 18.08.2028 -
Andrija Maksimović VfL Wolfsburg Activo 136 / 141 40% 1 17.08.2028 -
Jamal Iddrissou Pergolettese Activo 114 / 123 40% 2 16.08.2028 -
Arthur De Lima Central Coast Mariners Activo 116 / 120 40% 1 16.08.2028 -
Kerim Alajbegović Modena Activo 140 / 141 40% 1 12.08.2028 -
Alphadjo Cissé Lecce Activo 137 / 138 40% 1 10.08.2028 -
Mustafa Hekimoğlu Antalyaspor Activo 136 / 138 40% 1 09.08.2028 -
Ethan Nwaneri Arsenal Activo 157 / 160 40% 1 09.08.2028 -
Amin Nabizada Exeter City Activo 116 / 123 40% 2 08.08.2028 -
Saïd El Mala Köln Rechazado 147 / 151 40% 1 08.08.2028 Más información
Mohamed Amoura VfL Wolfsburg Activo 154 / 156 90% 1 07.08.2028 Aprobar
Shea Lacey Crystal Palace Activo 138 / 142 40% 1 07.08.2028 -
Babis Kostoulas Oxford United Activo 148 / 149 40% 1 07.08.2028 -
Woo-Yeong Jeong Union Berlin Activo 141 / 141 90% 1 31.07.2028 Aprobar
Riquelme Thompson-Jones Accrington Stanley Activo 112 / 122 40% 1 26.07.2028 -
Miguel Figueiredo Benfica Activo 121 / 129 40% 5 11.07.2028 -
Héctor Fort Real Sociedad Activo 145 / 146 40% 2 03.07.2028 -
Illaijh de Ruijter ADO Den Haag Activo 121 / 125 40% 5 21.06.2028 -
Andrija Bulatović Chamois Niortais Activo 127 / 135 40% 2 21.06.2028 -
Sindre Walle Egeli Udinese Activo 138 / 144 40% 3 04.06.2028 -
Rayan Hamburger SV Activo 148 / 144 40% 1 04.06.2028 -
Kiani Inge Groningen Activo 111 / 120 40% 1 01.06.2028 -
Josh Acheampong Everton Activo 143 / 145 40% 3 07.01.2028 -
Josh Nichols Oldham Athletic Activo 119 / 124 40% 1 07.01.2028 -
William Gomes Porto Activo 152 / 153 40% 5 01.01.2028 -
Victor Hernandez Santa Fe Activo 122 / 122 40% 11 01.01.2028 -
Ibrahim Maza Bayer Leverkusen Activo 153 / 153 40% 25 04.10.2027 -
Kosta Nedeljković Aston Villa Activo 136 / 139 40% 5 04.10.2027 -
Corsin Konietzke St. Gallen Activo 118 / 122 40% 4 30.09.2027 -
Jakob Schöller Altach Activo 111 / 115 40% 2 28.09.2027 -
Agustín Obregón River Plate Activo 110 / 115 40% 1 28.09.2027 -
Lucas Høgsberg RC Strasbourg Activo 138 / 145 40% 13 27.09.2027 -
Bence Dárdai VfL Wolfsburg Activo 140 / 147 40% 7 24.09.2027 -
Caleb Yirenkyi Coventry City Activo 139 / 149 40% 17 19.09.2027 -
Dejan Radonjić SV Ried Activo 116 / 122 40% 2 19.09.2027 -
Archie Gray Southampton Activo 149 / 156 40% 6 16.09.2027 -
Adrian Skogmar Malmo FF Activo 114 / 119 40% 2 09.09.2027 -
Lucas Bergvall Tottenham Activo 147 / 153 40% 2 07.09.2027 -
Eliás Montiel Borussia Dortmund Activo 136 / 145 40% 2 07.09.2027 -
Jonas Harder Basel Activo 112 / 120 40% 2 06.09.2027 -
Fodé Sylla Sion Activo 115 / 128 40% 2 24.08.2027 -
Nazareno Roselli Defensa y Justicia Activo 115 / 121 40% 1 23.08.2027 -
Mats Rots TSG Hoffenheim Activo 129 / 134 40% 1 21.08.2027 -
Mbekezeli Mbokazi Chicago Fire Activo 128 / 136 40% 5 19.08.2027 -
Sascha Britschgi AC Milan Activo 124 / 126 40% 5 18.08.2027 -
Bruno Ogbus St. Pauli Activo 129 / 136 40% 10 15.08.2027 -
Izan Merino Málaga Activo 132 / 134 40% 15 13.08.2027 -
Ethan Williams Peterborough United Activo 117 / 126 40% 3 09.08.2027 -
Mateus Mané Burnley Activo 136 / 147 40% 2 09.08.2027 -
Rafael Moreno Atletico Venezuela Activo 112 / 111 40% 1 09.08.2027 -
Gonçalo Oliveira Benfica Activo 117 / 123 40% 10 07.08.2027 -
Jan Bürger Northampton Town Activo 113 / 126 40% 12 06.08.2027 -
Henrique Silva Santa Clara Activo 112 / 119 40% 1 05.08.2027 -
Tiago Freitas Benfica Activo 118 / 125 40% 5 04.08.2027 -
Othmane Maamma Watford Activo 128 / 132 40% 4 02.08.2027 -
Gianluca Prestianni Benfica Activo 139 / 143 40% 2 02.08.2027 -
Jonathan Asp-Jensen Deportivo La Coruña Activo 127 / 132 40% 3 02.08.2027 -
Yusi Alavés Activo 132 / 141 40% 11 26.07.2027 -
Kees Smit AZ Activo 141 / 152 40% 14 22.07.2027 -
Givairo Read Feyenoord Activo 148 / 152 40% 12 19.07.2027 -
Louis Leroux FC Nantes Activo 130 / 134 40% 6 08.07.2027 -
Ryan Oné Sheffield United Activo 115 / 118 40% 1 05.07.2027 -
Ezra Mayers West Ham United Activo 120 / 132 40% 1 02.07.2027 -
Victor Froholdt Porto Activo 152 / 152 40% 4 15.06.2027 -
Jan Virgili Club Brugge Activo 134 / 138 40% 2 14.06.2027 -
Leo Castledine Middlesbrough Activo 125 / 127 40% 1 14.06.2027 -
Can Uzun Eintracht Frankfurt Activo 146 / 150 40% 3 02.06.2027 -
Samuele di Benedetto Twente Activo 113 / 119 40% 8 30.05.2027 -
Mert Kömür FC Augsburg Activo 124 / 126 40% 3 29.05.2027 -
Mohamadou Kanté Crawley Town Activo 113 / 118 40% 1 19.05.2027 -
Gorka Gorosabel Real Sociedad Activo 109 / 113 40% 1 19.05.2027 -
Oscar Schwartau Norwich City Activo 123 / 130 40% 1 14.05.2027 -
David Mella Deportivo La Coruña Activo 129 / 131 40% 2 12.05.2027 -
Nikolaus Wurmbrand Girona Activo 121 / 123 40% 2 11.05.2027 -
Yussif Saidu Zaragoza Activo 120 / 130 40% 6 08.05.2027 -
Samir El Mourabet RC Strasbourg Activo 122 / 129 40% 1 03.05.2027 -
Chemsdine Talbi Sunderland Activo 141 / 147 40% 5 30.04.2027 -
Romelle Donovan Brentford Activo 120 / 126 40% 1 28.04.2027 -
Kirill Glebov CSKA Moscow Activo 131 / 134 40% 2 22.04.2027 -
Rocco Vata Watford Activo 119 / 122 40% 1 10.04.2027 -
Pau Navarro Villarreal Activo 141 / 146 40% 4 02.04.2027 -
Antoni Milambo Brentford Activo 140 / 138 40% 2 25.03.2027 -
Olívio Tomé Benfica Activo 111 / 111 40% 1 25.03.2027 -
Joaquin Seys Club Brugge Activo 129 / 127 40% 4 18.03.2027 -
Nico O'Reilly Manchester City Activo 152 / 154 40% 7 15.03.2027 -
Kobbie Mainoo Manchester United Activo 149 / 156 40% 2 22.02.2027 -
Leandrinho Sharjah Activo 111 / 118 40% 1 14.02.2027 -
Ferran Torres Paris Saint-Germain Activo 165 / 167 40% 2 11.01.2027 -
Roberto Fernández Braga Activo 144 / 142 40% 3 03.01.2027 -
Gabriel Martinelli Arsenal Activo 164 / 166 40% 8 01.01.2027 -
Mikel Jauregizar Athletic Bilbao Activo 153 / 157 40% 2 30.12.2026 -
Aurélien Tchouaméni Real Madrid Activo 169 / 166 40% 6 29.12.2026 -
Pedri Barcelona Activo 181 / 183 40% 8 28.12.2026 -
Álex Baena Atlético Madrid Activo 164 / 160 40% 10 28.12.2026 -
James Maddison Tottenham Activo 154 / 158 40% 1 28.12.2026 -
Raphinha Barcelona Activo 177 / 172 40% 6 27.12.2026 -
Oihan Sancet Athletic Bilbao Activo 160 / 154 40% 2 25.12.2026 -
Aimar Osasuna Activo 149 / 147 40% 2 24.12.2026 -
Osame Sahraoui LOSC Lille Activo 146 / 137 40% 1 24.12.2026 -
Hugo Ekitiké Liverpool Activo 163 / 161 40% 6 19.12.2026 -
Niklas Steffen Thun Activo 121 / 117 40% 1 17.12.2026 -
James Trafford Leeds United Activo 141 / 142 40% 1 17.12.2026 -
Frenkie de Jong Barcelona Activo 169 / 167 40% 3 15.12.2026 -
João Pedro Chelsea Activo 150 / 156 40% 2 15.12.2026 -
Anthony Patterson Wrexham Activo 131 / 129 40% 1 14.12.2026 -
Joseph Leclercq Tottenham Activo 154 / 152 40% 1 14.12.2026 -
Matheus Cunha Manchester United Activo 157 / 150 40% 8 12.12.2026 -
Brahim Díaz Real Madrid Activo 151 / 145 40% 1 12.12.2026 -
Adam Hložek TSG Hoffenheim Activo 135 / 130 40% 1 12.12.2026 -
Radek Vítek Middlesbrough Activo 133 / 131 40% 1 10.12.2026 -
Alphonso Davies Bayern Munich Activo 164 / 154 40% 2 08.12.2026 -
Alexis Mac Allister Liverpool Activo 158 / 164 40% 4 04.12.2026 -
Sota Kitano Red Bull Salzburg Activo 125 / 122 40% 1 02.12.2026 -
Srđan Hrstić Altach Activo 105 / 105 40% 1 27.11.2026 -
Pablo Torre Mallorca Activo 141 / 148 40% 4 25.11.2026 -
Alejandro Grimaldo Atlético Madrid Activo 162 / 163 40% 4 20.11.2026 -
Jude Bellingham Real Madrid Activo 178 / 172 40% 4 15.11.2026 -
Moisés Caicedo Chelsea Activo 167 / 174 40% 4 13.11.2026 -
Manu Koné AS Roma Activo 165 / 158 40% 2 13.11.2026 -
Philippe Keny Zurich Activo 123 / 115 40% 2 13.11.2026 -
Fermín Barcelona Activo 157 / 167 40% 2 11.11.2026 -
Georginio Rutter Brighton Activo 148 / 150 40% 1 06.11.2026 -
Mason Mount Manchester United Activo 153 / 155 40% 3 03.11.2026 -
Ademola Lookman Atlético Madrid Activo 158 / 163 40% 2 31.10.2026 -
Savinho Tottenham Activo 155 / 153 40% 3 25.10.2026 -
Achraf Hakimi Paris Saint-Germain Activo 180 / 178 40% 2 24.10.2026 -
Rodrigo De Paul Inter Miami CF Activo 153 / 161 40% 8 21.10.2026 -
Michael Olise Bayern Munich Activo 180 / 174 40% 1 10.10.2026 -
Cristian Uribe Monaco Activo 153 / 145 40% 1 10.10.2026 -
Joshua Kimmich Bayern Munich Activo 178 / 175 40% 4 09.10.2026 -
Nico Williams Athletic Bilbao Activo 164 / 171 40% 1 09.10.2026 -
Bradley Barcola Liverpool Activo 159 / 162 40% 1 06.10.2026 -
Eduardo Camavinga Real Madrid Activo 167 / 159 40% 3 05.10.2026 -
Alexis Vega Feyenoord Activo 147 / 141 40% 1 04.10.2026 -
Federico Valverde Real Madrid Activo 180 / 177 40% 1 04.10.2026 -
Boubacar Kamara Aston Villa Activo 163 / 158 40% 3 01.10.2026 -
Youri Tielemans Manchester United Activo 164 / 157 40% 2 01.10.2026 -
Johnny Cardoso Atlético Madrid Activo 154 / 153 40% 1 28.09.2026 -
Leandro Paredes Boca Juniors Activo 146 / 144 40% 1 27.09.2026 -
Antoine Semenyo Manchester City Activo 159 / 152 40% 2 24.09.2026 -
Florian Wirtz Liverpool Activo 168 / 168 40% 1 20.09.2026 -
Gavi Barcelona Activo 157 / 156 40% 1 19.09.2026 -
Noussair Mazraoui Manchester United Activo 147 / 146 40% 1 19.09.2026 -
Jules Koundé Barcelona Activo 159 / 154 40% 1 17.09.2026 -
Angelo Stiller VfB Stuttgart Activo 149 / 155 40% 1 16.09.2026 -
Xavi Simons Tottenham Activo 151 / 152 40% 2 14.09.2026 -
Rayan Cherki Manchester City Activo 160 / 166 40% 3 14.09.2026 -
Dani Olmo Barcelona Activo 159 / 158 40% 2 10.09.2026 -
Ousmane Dembélé Paris Saint-Germain Activo 185 / 186 40% 1 07.09.2026 -
Micky van de Ven Tottenham Activo 155 / 150 40% 1 06.09.2026 -
Sandro Tonali Tottenham Activo 171 / 169 40% 1 02.09.2026 -
Moritz Nicolas Borussia Mönchengladbach Activo 136 / 133 40% 1 25.08.2026 -
Kepa Arrizabalaga Arsenal Activo 144 / 142 40% 1 25.08.2026 -
Viktor Gyökeres Arsenal Activo 151 / 153 40% 1 11.08.2026 -
Valentino Ilsanker Mattersburg Activo 106 / 112 40% 1 05.08.2026 -
Lewis Hall Newcastle United Activo 142 / 152 40% 1 03.08.2026 -
Marcus Rashford Manchester United Activo 156 / 151 40% 1 02.08.2026 -